createdAt,value
2023-02-03T00:02:23.815Z,73.33
2023-02-03T00:04:50.982Z,74.72
2023-02-03T00:07:19.007Z,73.91
2023-02-03T00:09:46.199Z,73.88
2023-02-03T00:12:13.886Z,74.13
2023-02-03T00:14:41.055Z,73.85
2023-02-03T00:17:08.339Z,73.96
2023-02-03T00:19:35.579Z,73.84
2023-02-03T00:22:02.731Z,74.66
2023-02-03T00:24:29.971Z,74.94
2023-02-03T00:26:57.143Z,75.00
2023-02-03T00:29:25.993Z,75.05
2023-02-03T00:31:53.996Z,75.54
2023-02-03T00:34:21.842Z,75.73
2023-02-03T00:36:49.084Z,75.27
2023-02-03T00:39:16.525Z,75.18
2023-02-03T00:41:43.921Z,74.26
2023-02-03T00:44:11.231Z,74.75
2023-02-03T00:46:38.715Z,74.72
2023-02-03T00:49:06.248Z,75.72
2023-02-03T00:51:34.134Z,74.20
2023-02-03T00:54:02.968Z,75.23
2023-02-03T00:56:30.330Z,74.63
2023-02-03T00:58:57.876Z,73.17
2023-02-03T01:01:27.158Z,72.56
2023-02-03T01:03:57.032Z,73.55
2023-02-03T01:06:24.416Z,72.83
2023-02-03T01:08:52.199Z,72.03
2023-02-03T01:11:22.361Z,72.47
2023-02-03T01:13:50.271Z,73.55
2023-02-03T01:16:19.966Z,74.37
2023-02-03T01:18:47.361Z,74.03
2023-02-03T01:21:20.597Z,74.80
2023-02-03T01:23:48.101Z,75.06
2023-02-03T01:26:18.700Z,74.67
2023-02-03T01:28:53.209Z,74.81
2023-02-03T01:31:42.303Z,75.10
2023-02-03T01:34:16.180Z,74.17
2023-02-03T01:36:44.147Z,74.70
2023-02-03T01:39:11.578Z,74.52
2023-02-03T01:41:39.729Z,74.35
2023-02-03T01:44:45.187Z,74.51
2023-02-03T01:47:33.930Z,74.28
2023-02-03T01:50:11.726Z,73.91
2023-02-03T01:52:41.708Z,73.94
2023-02-03T01:55:13.164Z,73.25
2023-02-03T01:57:46.154Z,73.08
2023-02-03T02:00:13.981Z,72.38
2023-02-03T02:02:43.324Z,71.94
2023-02-03T02:05:24.959Z,71.60
2023-02-03T02:07:52.240Z,71.42
2023-02-03T02:10:19.684Z,70.86
2023-02-03T02:12:48.057Z,71.45
2023-02-03T02:15:15.387Z,70.88
2023-02-03T02:18:01.292Z,70.35
2023-02-03T02:21:02.819Z,70.52
2023-02-03T02:23:37.501Z,69.82
2023-02-03T02:26:19.805Z,70.13
2023-02-03T02:29:05.792Z,69.65
2023-02-03T02:31:44.356Z,69.34
2023-02-03T02:34:20.289Z,68.75
2023-02-03T02:37:11.115Z,68.09
2023-02-03T02:39:48.696Z,68.74
2023-02-03T02:42:23.446Z,68.97
2023-02-03T02:45:08.023Z,69.66
2023-02-03T02:47:35.333Z,69.36
2023-02-03T02:50:11.496Z,69.70
2023-02-03T02:52:41.721Z,69.90
2023-02-03T02:55:17.602Z,69.94
2023-02-03T02:57:46.278Z,69.52
2023-02-03T03:00:13.843Z,70.10
2023-02-03T03:02:41.141Z,69.35
2023-02-03T03:05:10.585Z,69.97
2023-02-03T03:07:51.575Z,69.75
2023-02-03T03:10:24.707Z,69.64
2023-02-03T03:12:55.881Z,69.36
2023-02-03T03:15:27.574Z,69.20
2023-02-03T03:17:59.505Z,69.21
2023-02-03T03:20:27.908Z,69.45
2023-02-03T03:23:00.263Z,69.74
2023-02-03T03:25:36.777Z,68.44
2023-02-03T03:28:08.556Z,68.57
2023-02-03T03:30:37.753Z,68.92
2023-02-03T03:33:06.099Z,69.30
2023-02-03T03:35:46.852Z,69.82
2023-02-03T03:38:22.162Z,69.35
2023-02-03T03:40:55.196Z,69.21
2023-02-03T03:43:26.935Z,68.94
2023-02-03T03:46:14.069Z,68.48
2023-02-03T03:48:52.209Z,69.01
2023-02-03T03:51:27.282Z,69.32
2023-02-03T03:53:56.955Z,69.39
2023-02-03T03:56:41.651Z,69.12
2023-02-03T03:59:10.073Z,68.91
2023-02-03T04:01:38.809Z,68.99
2023-02-03T04:04:09.203Z,69.08
2023-02-03T04:06:38.583Z,69.97
2023-02-03T04:09:06.011Z,69.01
2023-02-03T04:11:52.197Z,69.45
2023-02-03T04:14:19.477Z,69.73
2023-02-03T04:16:46.626Z,69.35
2023-02-03T04:19:13.835Z,68.90
2023-02-03T04:21:41.050Z,69.02
2023-02-03T04:24:08.267Z,68.77
2023-02-03T04:26:35.461Z,68.87
2023-02-03T04:29:02.923Z,67.86
2023-02-03T04:31:30.237Z,67.66
2023-02-03T04:33:57.525Z,68.83
2023-02-03T04:36:24.796Z,68.37
2023-02-03T04:38:52.216Z,69.56
2023-02-03T04:41:19.520Z,68.53
2023-02-03T04:43:46.836Z,69.25
2023-02-03T04:46:14.130Z,70.61
2023-02-03T04:48:41.327Z,70.26
2023-02-03T04:51:09.315Z,70.68
2023-02-03T04:53:36.962Z,70.96
2023-02-03T04:56:04.567Z,71.17
2023-02-03T04:58:31.770Z,71.89
2023-02-03T05:00:59.260Z,72.13
2023-02-03T05:03:26.578Z,71.24
2023-02-03T05:05:56.942Z,70.59
2023-02-03T05:08:24.955Z,70.59
2023-02-03T05:10:52.123Z,70.56
2023-02-03T05:13:19.322Z,70.83
2023-02-03T05:15:47.507Z,70.87
2023-02-03T05:18:14.793Z,71.07
2023-02-03T05:20:41.999Z,70.01
2023-02-03T05:23:09.188Z,70.02
2023-02-03T05:25:36.433Z,69.63
2023-02-03T05:28:03.853Z,69.15
2023-02-03T05:30:31.172Z,69.34
2023-02-03T05:32:58.372Z,69.82
2023-02-03T05:35:25.628Z,69.90
2023-02-03T05:37:52.886Z,69.69
2023-02-03T05:40:38.590Z,69.67
2023-02-03T05:43:05.773Z,69.62
2023-02-03T05:45:32.982Z,69.38
2023-02-03T05:48:02.454Z,70.02
2023-02-03T05:50:33.317Z,69.79
2023-02-03T05:53:15.185Z,69.94
2023-02-03T05:55:44.652Z,70.47
2023-02-03T05:58:11.854Z,69.96
2023-02-03T06:00:39.008Z,71.27
2023-02-03T06:03:06.592Z,71.19
2023-02-03T06:05:34.762Z,71.88
2023-02-03T06:08:01.960Z,72.69
2023-02-03T06:10:29.496Z,72.63
2023-02-03T06:12:56.921Z,73.10
2023-02-03T06:15:24.555Z,73.44
2023-02-03T06:17:52.075Z,73.50
2023-02-03T06:20:20.316Z,74.05
2023-02-03T06:22:47.542Z,74.75
2023-02-03T06:25:14.750Z,74.54
2023-02-03T06:27:42.250Z,75.10
2023-02-03T06:30:11.458Z,75.80
2023-02-03T06:32:38.718Z,76.13
2023-02-03T06:35:06.187Z,74.90
2023-02-03T06:37:33.751Z,74.35
2023-02-03T06:40:01.162Z,74.73
2023-02-03T06:42:28.330Z,74.71
2023-02-03T06:44:55.578Z,75.28
2023-02-03T06:47:22.836Z,75.18
2023-02-03T06:49:50.007Z,75.80
2023-02-03T06:52:17.436Z,77.09
2023-02-03T06:54:44.689Z,76.11
2023-02-03T06:57:12.043Z,77.41
2023-02-03T06:59:39.414Z,77.70
2023-02-03T07:02:09.208Z,78.75
2023-02-03T07:04:37.045Z,78.84
2023-02-03T07:07:04.281Z,79.18
2023-02-03T07:09:31.506Z,79.41
2023-02-03T07:11:58.745Z,79.40
2023-02-03T07:14:26.174Z,79.34
2023-02-03T07:16:54.369Z,79.44
2023-02-03T07:19:21.703Z,80.54
2023-02-03T07:21:48.874Z,79.75
2023-02-03T07:24:16.142Z,79.07
2023-02-03T07:26:52.806Z,79.23
2023-02-03T07:29:20.236Z,79.65
2023-02-03T07:31:47.650Z,79.67
2023-02-03T07:34:15.586Z,78.82
2023-02-03T07:36:42.780Z,80.08
2023-02-03T07:39:09.981Z,79.72
2023-02-03T07:41:37.350Z,78.75
2023-02-03T07:44:05.324Z,79.08
2023-02-03T07:46:32.608Z,78.75
2023-02-03T07:48:59.910Z,79.35
2023-02-03T07:51:27.154Z,79.59
2023-02-03T07:53:54.575Z,78.91
2023-02-03T07:56:21.824Z,79.01
2023-02-03T07:58:52.586Z,80.50
2023-02-03T08:01:20.080Z,77.51
2023-02-03T08:03:47.374Z,73.54
2023-02-03T08:06:14.709Z,71.90
2023-02-03T08:08:42.189Z,70.61
2023-02-03T08:11:09.691Z,69.65
2023-02-03T08:13:37.568Z,70.50
2023-02-03T08:16:05.338Z,71.81
2023-02-03T08:18:32.876Z,72.26
2023-02-03T08:21:00.846Z,72.61
2023-02-03T08:23:28.123Z,73.04
2023-02-03T08:25:55.442Z,73.11
2023-02-03T08:28:22.645Z,73.18
2023-02-03T08:30:49.987Z,73.83
2023-02-03T08:33:17.325Z,73.73
2023-02-03T08:35:49.722Z,72.93
2023-02-03T08:38:17.258Z,73.20
2023-02-03T08:40:44.620Z,73.35
2023-02-03T08:43:12.089Z,73.36
2023-02-03T08:45:40.886Z,74.64
2023-02-03T08:48:08.230Z,75.45
2023-02-03T08:50:35.826Z,74.55
2023-02-03T08:53:03.246Z,74.09
2023-02-03T08:55:35.415Z,74.29
2023-02-03T08:58:06.196Z,75.19
2023-02-03T09:00:36.381Z,75.15
2023-02-03T09:03:04.182Z,76.79
2023-02-03T09:05:32.194Z,76.54
2023-02-03T09:07:59.570Z,76.35
2023-02-03T09:10:27.816Z,76.30
2023-02-03T09:12:56.430Z,76.09
2023-02-03T09:15:27.199Z,76.37
2023-02-03T09:17:57.982Z,76.64
2023-02-03T09:20:26.496Z,77.29
2023-02-03T09:22:55.070Z,77.40
2023-02-03T09:25:24.957Z,79.51
2023-02-03T09:27:52.440Z,79.95
2023-02-03T09:30:20.706Z,80.53
2023-02-03T09:32:54.073Z,81.04
2023-02-03T09:35:22.783Z,79.84
2023-02-03T09:37:50.053Z,79.76
2023-02-03T09:40:36.335Z,79.89
2023-02-03T09:43:24.604Z,79.48
2023-02-03T09:45:52.155Z,79.17
2023-02-03T09:48:25.302Z,77.81
2023-02-03T09:50:55.843Z,76.92
2023-02-03T09:53:37.883Z,76.57
2023-02-03T09:56:05.339Z,77.26
2023-02-03T09:58:34.489Z,78.50
2023-02-03T10:01:06.492Z,78.89
2023-02-03T10:03:46.259Z,77.57
2023-02-03T10:06:28.044Z,77.63
2023-02-03T10:09:05.585Z,78.37
2023-02-03T10:11:54.640Z,77.30
2023-02-03T10:14:47.536Z,77.21
2023-02-03T10:17:33.518Z,77.77
2023-02-03T10:20:05.362Z,77.13
2023-02-03T10:22:37.921Z,76.96
2023-02-03T10:25:16.105Z,77.16
2023-02-03T10:27:44.464Z,75.19
2023-02-03T10:30:23.833Z,75.03
2023-02-03T10:33:11.212Z,74.07
2023-02-03T10:36:03.861Z,74.26
2023-02-03T10:38:58.302Z,74.55
2023-02-03T10:41:31.257Z,74.62
2023-02-03T10:43:58.944Z,74.38
2023-02-03T10:46:31.118Z,74.09
2023-02-03T10:48:58.915Z,73.85
2023-02-03T10:51:35.131Z,74.85
2023-02-03T10:54:09.918Z,74.70
2023-02-03T10:56:38.330Z,73.64
2023-02-03T10:59:07.394Z,73.38
2023-02-03T11:01:41.686Z,73.50
2023-02-03T11:04:27.646Z,73.13
2023-02-03T11:07:03.398Z,73.08
2023-02-03T11:09:37.745Z,72.68
2023-02-03T11:12:16.598Z,73.11
2023-02-03T11:14:48.392Z,72.95
2023-02-03T11:17:29.719Z,73.46
2023-02-03T11:20:06.617Z,73.79
2023-02-03T11:22:37.981Z,74.49
2023-02-03T11:25:17.075Z,73.72
2023-02-03T11:27:45.646Z,73.02
2023-02-03T11:30:30.435Z,73.96
2023-02-03T11:33:00.941Z,74.42
2023-02-03T11:35:31.797Z,74.07
2023-02-03T11:38:01.142Z,74.20
2023-02-03T11:40:34.416Z,74.75
2023-02-03T11:43:17.863Z,75.66
2023-02-03T11:45:48.571Z,76.05
2023-02-03T11:48:32.252Z,77.11
2023-02-03T11:51:18.062Z,78.11
2023-02-03T11:53:57.289Z,78.40
2023-02-03T11:56:24.874Z,77.99
2023-02-03T11:59:10.965Z,78.44
2023-02-03T12:01:54.544Z,78.07
2023-02-03T12:04:37.429Z,77.62
2023-02-03T12:07:36.864Z,76.92
2023-02-03T12:10:22.399Z,77.40
2023-02-03T12:13:15.097Z,76.35
2023-02-03T12:15:47.043Z,75.63
2023-02-03T12:18:35.891Z,76.80
2023-02-03T12:21:24.973Z,76.99
2023-02-03T12:24:35.850Z,76.10
2023-02-03T12:27:28.887Z,76.23
2023-02-03T12:30:03.844Z,75.76
2023-02-03T12:32:52.699Z,75.54
2023-02-03T12:35:40.072Z,75.74
2023-02-03T12:38:18.945Z,75.62
2023-02-03T12:40:59.352Z,75.78
2023-02-03T12:43:39.963Z,74.89
2023-02-03T12:46:36.783Z,74.32
2023-02-03T12:49:15.730Z,73.72
2023-02-03T12:51:59.674Z,73.70
2023-02-03T12:54:54.147Z,74.17
2023-02-03T12:57:32.351Z,74.34
2023-02-03T13:00:17.888Z,74.07
2023-02-03T13:02:56.212Z,73.61
2023-02-03T13:05:28.895Z,73.82
2023-02-03T13:08:06.253Z,74.41
2023-02-03T13:10:44.057Z,75.23
2023-02-03T13:13:15.220Z,75.61
2023-02-03T13:15:47.824Z,75.53
2023-02-03T13:18:33.639Z,76.34
2023-02-03T13:21:01.076Z,76.32
2023-02-03T13:23:28.380Z,77.40
2023-02-03T13:26:51.930Z,76.72
2023-02-03T13:29:44.063Z,76.00
2023-02-03T13:32:23.255Z,76.77
2023-02-03T13:35:32.263Z,76.45
2023-02-03T13:38:04.009Z,75.60
2023-02-03T13:40:51.827Z,75.84
2023-02-03T13:43:37.189Z,76.68
2023-02-03T13:46:09.037Z,76.06
2023-02-03T13:48:37.023Z,75.51
2023-02-03T13:51:15.339Z,74.84
2023-02-03T13:53:44.395Z,76.05
2023-02-03T13:56:25.351Z,75.99
2023-02-03T13:59:40.506Z,75.26
2023-02-03T14:02:20.036Z,75.77
2023-02-03T14:04:47.376Z,75.68
2023-02-03T14:07:38.312Z,76.56
2023-02-03T14:10:14.729Z,77.16
2023-02-03T14:12:51.246Z,76.64
2023-02-03T14:15:21.599Z,75.96
2023-02-03T14:17:52.293Z,76.34
2023-02-03T14:20:25.670Z,77.24
2023-02-03T14:22:56.169Z,77.34
2023-02-03T14:25:24.690Z,76.86
2023-02-03T14:28:04.314Z,76.82
2023-02-03T14:30:31.742Z,76.36
2023-02-03T14:33:01.416Z,76.23
2023-02-03T14:35:37.127Z,75.76
2023-02-03T14:38:06.995Z,75.66
2023-02-03T14:40:48.058Z,75.68
2023-02-03T14:43:43.457Z,77.00
2023-02-03T14:46:33.947Z,77.58
2023-02-03T14:49:03.995Z,77.81
2023-02-03T14:51:50.121Z,76.90
2023-02-03T14:54:35.819Z,77.17
2023-02-03T14:57:21.443Z,77.27
2023-02-03T14:59:59.342Z,76.58
2023-02-03T15:02:31.044Z,77.30
2023-02-03T15:05:13.826Z,77.12
2023-02-03T15:07:49.657Z,76.84
2023-02-03T15:10:27.452Z,76.82
2023-02-03T15:12:56.997Z,76.63
2023-02-03T15:15:25.610Z,76.24
2023-02-03T15:17:55.434Z,76.01
2023-02-03T15:20:32.546Z,77.04
2023-02-03T15:23:00.414Z,78.21
2023-02-03T15:25:30.267Z,77.72
2023-02-03T15:28:19.330Z,77.43
2023-02-03T15:30:48.293Z,77.11
2023-02-03T15:33:20.358Z,77.45
2023-02-03T15:35:51.588Z,77.32
2023-02-03T15:38:26.590Z,77.21
2023-02-03T15:40:57.828Z,77.82
2023-02-03T15:43:30.181Z,77.33
2023-02-03T15:46:13.442Z,77.28
2023-02-03T15:48:45.686Z,76.15
2023-02-03T15:51:22.014Z,76.19
2023-02-03T15:54:12.078Z,76.58
2023-02-03T15:56:42.604Z,76.45
2023-02-03T15:59:35.887Z,76.24
2023-02-03T16:02:15.359Z,75.59
2023-02-03T16:04:43.274Z,75.85
2023-02-03T16:07:22.939Z,76.53
2023-02-03T16:09:55.405Z,76.66
2023-02-03T16:12:26.314Z,76.29
2023-02-03T16:14:55.195Z,75.93
2023-02-03T16:17:35.617Z,75.98
2023-02-03T16:20:14.323Z,75.94
2023-02-03T16:23:02.095Z,75.75
2023-02-03T16:25:32.773Z,75.50
2023-02-03T16:28:21.074Z,75.07
2023-02-03T16:31:24.334Z,74.61
2023-02-03T16:34:10.295Z,75.97
2023-02-03T16:37:01.716Z,75.42
2023-02-03T16:39:47.787Z,75.40
2023-02-03T16:42:38.822Z,75.39
2023-02-03T16:45:36.107Z,75.51
2023-02-03T16:48:22.807Z,76.19
2023-02-03T16:50:50.926Z,76.49
2023-02-03T16:53:20.704Z,76.79
2023-02-03T16:55:48.720Z,76.44
2023-02-03T16:58:16.618Z,76.28
2023-02-03T17:00:46.245Z,75.72
2023-02-03T17:03:19.440Z,75.69
2023-02-03T17:05:47.828Z,76.56
2023-02-03T17:08:16.046Z,76.06
2023-02-03T17:10:44.885Z,75.20
2023-02-03T17:13:12.430Z,75.00
2023-02-03T17:15:44.452Z,75.30
2023-02-03T17:18:12.476Z,75.39
2023-02-03T17:20:40.130Z,75.15
2023-02-03T17:23:07.787Z,75.24
2023-02-03T17:25:38.581Z,74.61
2023-02-03T17:28:07.863Z,74.74
2023-02-03T17:30:36.053Z,74.62
2023-02-03T17:33:11.780Z,75.02
2023-02-03T17:35:44.228Z,75.65
2023-02-03T17:38:13.327Z,74.97
2023-02-03T17:54:30.969Z,76.30
2023-02-03T17:56:58.140Z,76.25
2023-02-03T17:59:25.351Z,76.25
2023-02-03T18:01:53.009Z,76.07
2023-02-03T18:04:20.292Z,75.92
2023-02-03T18:06:47.481Z,74.83
2023-02-03T18:09:16.612Z,73.82
2023-02-03T18:11:45.845Z,74.66
2023-02-03T18:14:15.039Z,74.84
2023-02-03T18:16:42.943Z,75.04
2023-02-03T18:19:14.193Z,74.23
2023-02-03T18:21:42.514Z,74.42
2023-02-03T18:24:12.188Z,75.82
2023-02-03T18:26:49.805Z,75.80
2023-02-03T18:29:17.612Z,75.77
2023-02-03T18:31:45.536Z,76.34
2023-02-03T18:34:12.922Z,76.15
2023-02-03T18:39:15.076Z,76.08
2023-02-03T18:41:42.568Z,76.25
2023-02-03T18:44:10.048Z,77.04
2023-02-03T18:46:37.402Z,77.27
2023-02-03T18:49:07.879Z,77.23
2023-02-03T18:51:37.938Z,77.38
2023-02-03T18:54:05.217Z,76.77
2023-02-03T18:56:35.327Z,76.71
2023-02-03T18:59:14.125Z,76.58
2023-02-03T19:01:41.454Z,77.61
2023-02-03T19:04:08.953Z,78.22
2023-02-03T19:06:36.476Z,79.07
2023-02-03T19:09:05.453Z,80.14
2023-02-03T19:11:33.853Z,78.90
2023-02-03T19:14:01.192Z,79.15
2023-02-03T19:16:28.451Z,79.92
2023-02-03T19:18:55.765Z,79.07
2023-02-03T19:21:23.013Z,80.49
2023-02-03T19:23:50.352Z,80.27
2023-02-03T19:26:17.579Z,79.80
2023-02-03T19:28:44.965Z,80.27
2023-02-03T19:31:15.228Z,79.85
2023-02-03T19:33:43.002Z,79.54
2023-02-03T19:36:11.315Z,80.00
2023-02-03T19:38:38.887Z,80.30
2023-02-03T19:41:07.443Z,80.89
2023-02-03T19:43:35.124Z,79.96
2023-02-03T19:46:02.603Z,80.77
2023-02-03T19:48:29.840Z,80.94
2023-02-03T19:50:57.295Z,81.18
2023-02-03T19:53:24.539Z,80.90
2023-02-03T19:55:52.102Z,79.97
2023-02-03T19:58:19.405Z,80.57
2023-02-03T20:00:46.735Z,80.89
2023-02-03T20:03:13.943Z,80.31
2023-02-03T20:05:41.496Z,81.23
2023-02-03T20:08:12.873Z,82.21
2023-02-03T20:10:42.330Z,82.39
2023-02-03T20:13:10.800Z,82.44
2023-02-03T20:15:38.312Z,81.79
2023-02-03T20:18:06.833Z,81.89
2023-02-03T20:20:34.960Z,81.14
2023-02-03T20:23:02.414Z,82.09
2023-02-03T20:25:29.772Z,81.70
2023-02-03T20:27:58.206Z,81.02
2023-02-03T20:30:25.716Z,80.61
2023-02-03T20:32:54.747Z,80.69
2023-02-03T20:35:23.944Z,82.04
2023-02-03T20:37:51.500Z,82.41
2023-02-03T20:40:22.489Z,80.95
2023-02-03T20:42:51.152Z,81.71
2023-02-03T20:45:20.534Z,82.11
2023-02-03T20:47:47.860Z,81.56
2023-02-03T20:50:28.859Z,80.98
2023-02-03T20:52:59.369Z,80.60
2023-02-03T20:55:26.639Z,82.10
2023-02-03T20:57:56.788Z,82.34
2023-02-03T21:00:25.213Z,81.74
2023-02-03T21:03:11.562Z,80.42
2023-02-03T21:05:42.159Z,83.07
2023-02-03T21:08:14.657Z,83.47
2023-02-03T21:10:42.315Z,82.10
2023-02-03T21:13:29.472Z,82.31
2023-02-03T21:16:04.090Z,83.22
2023-02-03T21:19:00.540Z,81.97
2023-02-03T21:21:30.499Z,81.90
2023-02-03T21:23:57.758Z,82.34
2023-02-03T21:26:29.574Z,81.37
2023-02-03T21:28:59.043Z,80.84
2023-02-03T21:31:30.430Z,81.05
2023-02-03T21:33:59.750Z,82.06
2023-02-03T21:36:30.753Z,81.40
2023-02-03T21:39:02.200Z,81.75
2023-02-03T21:41:33.226Z,82.19
2023-02-03T21:44:01.031Z,81.39
2023-02-03T21:46:38.713Z,82.30
2023-02-03T21:49:07.486Z,81.48
2023-02-03T21:51:39.178Z,81.43
2023-02-03T21:54:23.718Z,81.76
2023-02-03T21:56:51.078Z,81.79
2023-02-03T21:59:21.674Z,81.36
2023-02-03T22:01:49.180Z,81.21
2023-02-03T22:04:16.562Z,81.75
2023-02-03T22:06:45.958Z,81.57
2023-02-03T22:09:19.441Z,82.12
2023-02-03T22:11:46.896Z,81.79
2023-02-03T22:14:16.758Z,82.03
2023-02-03T22:16:44.712Z,83.12
2023-02-03T22:19:12.047Z,83.47
2023-02-03T22:21:39.504Z,83.12
2023-02-03T22:24:06.742Z,82.23
2023-02-03T22:26:34.004Z,82.95
2023-02-03T22:29:02.373Z,82.53
2023-02-03T22:31:29.927Z,83.82
2023-02-03T22:33:57.321Z,85.42
2023-02-03T22:36:25.819Z,84.40
2023-02-03T22:38:53.234Z,83.55
2023-02-03T22:41:21.042Z,83.54
2023-02-03T22:43:48.332Z,82.18
2023-02-03T22:46:15.651Z,83.07
2023-02-03T22:48:42.932Z,82.78
2023-02-03T22:51:10.211Z,83.28
2023-02-03T22:53:39.468Z,83.87
2023-02-03T22:56:07.057Z,84.23
2023-02-03T22:58:34.347Z,83.50
2023-02-03T23:01:01.648Z,82.71
2023-02-03T23:03:32.230Z,82.73
2023-02-03T23:05:59.644Z,83.83
2023-02-03T23:08:27.458Z,83.35
2023-02-03T23:10:55.783Z,83.31
2023-02-03T23:13:23.352Z,83.42
2023-02-03T23:15:51.135Z,84.47
2023-02-03T23:18:18.422Z,83.92
2023-02-03T23:20:45.704Z,82.58
2023-02-03T23:23:14.198Z,82.50
2023-02-03T23:25:41.597Z,83.93
2023-02-03T23:28:08.875Z,83.79
2023-02-03T23:30:36.320Z,84.00
2023-02-03T23:33:03.598Z,83.98
2023-02-03T23:35:46.107Z,83.53
2023-02-03T23:38:14.771Z,84.11
2023-02-03T23:40:42.159Z,83.57
2023-02-03T23:43:09.437Z,83.88
2023-02-03T23:45:36.671Z,82.73
2023-02-03T23:48:04.693Z,83.70
2023-02-03T23:50:32.228Z,83.75
2023-02-03T23:52:59.743Z,83.25
2023-02-03T23:55:26.948Z,83.31
2023-02-03T23:57:54.237Z,83.77
